Time;durP1;ratioP1;P1;durP2;ratioP2;P2;SDS_P1;SDS_P2;PMS_P1;PMS_P2;Temp;Humidity;BMP_temperature;BMP_pressure;BME280_temperature;BME280_humidity;BME280_pressure;Samples;Min_cycle;Max_cycle;Signal;HPM_P1;HPM_P2
2024/03/12 00:01:26;;;;;;;29.45;18.98;;;;;;;30.56;67.83;101203.78;5057952;28;70064;-30
2024/03/12 00:03:58;;;;;;;51.67;18.95;;;;;;;30.60;68.44;101211.28;5059093;28;66374;-30
2024/03/12 00:06:29;;;;;;;45.85;19.00;;;;;;;30.61;70.43;101215.63;5054473;28;70251;-30
2024/03/12 00:09:06;;;;;;;40.33;21.55;;;;;;;30.68;69.35;101219.19;5057630;28;66620;-30
2024/03/12 00:11:37;;;;;;;52.38;23.38;;;;;;;30.70;70.45;101217.09;5060229;28;70156;-31
2024/03/12 00:14:07;;;;;;;62.63;28.17;;;;;;;30.68;71.27;101219.19;5054674;28;67830;-32
2024/03/12 00:16:40;;;;;;;60.00;29.92;;;;;;;30.72;70.09;101227.69;5059552;28;70279;-30
2024/03/12 00:19:10;;;;;;;64.32;30.00;;;;;;;30.69;71.31;101220.81;5060216;28;66834;-30
2024/03/12 00:21:42;;;;;;;58.90;29.63;;;;;;;30.70;71.25;101232.47;5060098;28;69992;-31
2024/03/12 00:24:12;;;;;;;;;;;;;;;30.60;72.83;101232.94;5057550;28;66622;-31
2024/03/12 00:26:43;;;;;;;56.58;27.98;;;;;;;30.66;71.54;101226.66;5058752;28;70162;-30
2024/03/12 00:29:19;;;;;;;63.63;28.42;;;;;;;30.69;71.01;101226.25;5055543;28;66120;-31
2024/03/12 00:31:51;;;;;;;62.15;28.88;;;;;;;30.75;70.75;101242.69;5057468;28;69622;-33
2024/03/12 00:34:21;;;;;;;;;;;;;;;30.62;73.62;101241.69;5060457;28;66783;-32
2024/03/12 00:36:52;;;;;;;51.17;28.92;;;;;;;30.75;71.66;101234.56;5052316;28;70139;-34
2024/03/12 00:39:22;;;;;;;57.78;28.20;;;;;;;30.77;70.54;101249.56;5055724;28;65132;-33
2024/03/12 00:41:56;;;;;;;50.83;28.02;;;;;;;30.75;70.40;101234.56;5053183;28;70130;-30
2024/03/12 00:44:27;;;;;;;48.85;27.95;;;;;;;30.84;69.57;101253.16;5053615;28;67069;-30
2024/03/12 00:46:57;;;;;;;51.45;27.95;;;;;;;30.88;69.11;101259.78;5055191;28;70337;-30
2024/03/12 00:49:30;;;;;;;44.88;26.15;;;;;;;30.87;68.94;101251.84;5052926;28;66276;-30
2024/03/12 00:52:03;;;;;;;43.15;25.52;;;;;;;30.97;69.31;101265.81;5051562;28;69428;-31
2024/03/12 00:54:35;;;;;;;41.00;26.70;;;;;;;30.97;69.06;101263.09;5050740;28;65800;-31
2024/03/12 00:57:06;;;;;;;34.70;23.58;;;;;;;31.00;69.08;101272.69;5052014;28;70901;-31
2024/03/12 00:59:37;;;;;;;45.35;25.45;;;;;;;31.03;68.89;101270.38;5055072;28;65832;-32
2024/03/12 01:02:12;;;;;;;40.38;23.95;;;;;;;31.05;69.34;101268.28;5053924;28;70245;-32
2024/03/12 01:04:43;;;;;;;33.33;23.45;;;;;;;31.06;69.38;101269.94;5053900;28;65524;-32
2024/03/12 01:07:13;;;;;;;40.08;23.23;;;;;;;31.09;69.13;101272.25;5055573;28;69992;-32
2024/03/12 01:09:44;;;;;;;40.35;23.40;;;;;;;31.11;69.29;101272.84;5058697;28;65935;-31
2024/03/12 01:12:15;;;;;;;47.45;22.98;;;;;;;31.14;69.45;101274.31;5056897;28;70565;-30
2024/03/12 01:14:47;;;;;;;30.80;22.23;;;;;;;31.16;69.14;101270.34;5061225;28;65440;-31
2024/03/12 01:17:20;;;;;;;34.20;22.20;;;;;;;31.17;69.57;101276.59;5058678;28;70417;-30
2024/03/12 01:19:51;;;;;;;38.63;22.10;;;;;;;31.18;69.32;101286.41;5056806;28;66171;-31
2024/03/12 01:22:24;;;;;;;38.65;21.83;;;;;;;31.21;69.63;101293.28;5046561;28;69678;-31
2024/03/12 01:24:55;;;;;;;33.83;21.60;;;;;;;31.21;69.58;101285.97;5054238;28;65087;-33
2024/03/12 01:27:26;;;;;;;38.53;23.25;;;;;;;31.25;69.34;101286.38;5059452;28;70159;-32
2024/03/12 01:29:57;;;;;;;36.08;22.38;;;;;;;31.30;69.57;101286.56;5059976;28;65968;-31
2024/03/12 01:32:27;;;;;;;36.65;22.50;;;;;;;31.30;69.46;101292.00;5057699;28;69106;-34
2024/03/12 01:34:58;;;;;;;33.53;22.98;;;;;;;31.33;69.33;101294.28;5056683;28;66294;-33
2024/03/12 01:37:29;;;;;;;33.20;22.55;;;;;;;31.35;69.26;101294.91;5059737;28;70069;-32
2024/03/12 01:40:00;;;;;;;37.35;22.42;;;;;;;31.36;69.22;101281.16;5046900;28;65584;-32
2024/03/12 01:42:31;;;;;;;34.92;21.98;;;;;;;31.38;69.04;101283.66;5059451;28;70102;-32
2024/03/12 01:45:03;;;;;;;40.10;23.15;;;;;;;31.43;68.84;101288.44;5051819;28;66170;-31
2024/03/12 01:47:36;;;;;;;33.75;22.52;;;;;;;31.46;69.12;101290.72;5058533;28;69664;-31
2024/03/12 01:50:07;;;;;;;37.08;21.15;;;;;;;31.45;68.97;101278.19;5049025;28;66126;-32
2024/03/12 01:52:37;;;;;;;38.85;22.05;;;;;;;31.50;68.92;101287.34;5059480;28;70268;-34
2024/03/12 01:55:08;;;;;;;31.67;21.40;;;;;;;31.52;68.76;101279.00;5050373;28;66870;-31
2024/03/12 01:57:45;;;;;;;33.60;21.40;;;;;;;31.54;69.33;101285.06;5042165;28;69807;-32
2024/03/12 02:00:17;;;;;;;32.90;20.40;;;;;;;31.56;68.51;101286.47;5057639;28;65985;-31
2024/03/12 02:02:52;;;;;;;30.25;20.75;;;;;;;31.60;68.51;101285.03;5057502;28;70060;-31
2024/03/12 02:05:22;;;;;;;27.63;19.38;;;;;;;31.61;68.49;101278.53;5057997;28;66641;-31
2024/03/12 02:07:53;;;;;;;25.58;18.67;;;;;;;31.65;68.88;101288.94;5055162;28;70242;-34
2024/03/12 02:10:27;;;;;;;39.83;18.98;;;;;;;31.65;68.52;101284.38;5058758;28;66096;-34
2024/03/12 02:12:58;;;;;;;30.85;18.27;;;;;;;31.69;68.27;101280.19;5058305;28;69288;-32
2024/03/12 02:15:28;;;;;;;28.88;17.55;;;;;;;31.73;68.26;101286.00;5057110;28;65714;-31
2024/03/12 02:17:59;;;;;;;29.95;17.48;;;;;;;31.76;68.27;101285.56;5058370;28;70271;-31
2024/03/12 02:20:30;;;;;;;26.98;15.43;;;;;;;31.77;67.87;101282.66;5057919;28;66555;-31
2024/03/12 02:23:03;;;;;;;30.08;15.85;;;;;;;31.81;67.86;101283.03;5057250;28;70296;-32
2024/03/12 02:25:34;;;;;;;21.90;15.40;;;;;;;31.81;67.49;101277.59;5057053;28;66409;-31
2024/03/12 02:28:06;;;;;;;20.77;13.60;;;;;;;31.87;67.83;101294.91;5056042;28;70309;-34
2024/03/12 02:30:36;;;;;;;22.38;14.15;;;;;;;31.90;67.74;101281.75;5062191;28;66977;-31
2024/03/12 02:33:08;;;;;;;14.23;12.80;;;;;;;31.93;67.30;101288.63;5062002;28;70409;-33
2024/03/12 02:35:39;;;;;;;20.05;13.50;;;;;;;31.96;67.63;101286.31;5059054;28;65505;-32
2024/03/12 02:38:09;;;;;;;16.75;13.38;;;;;;;31.98;66.99;101276.09;5060668;28;69147;-32
2024/03/12 02:40:40;;;;;;;15.10;11.93;;;;;;;32.00;67.09;101278.56;5060766;28;66556;-31
2024/03/12 02:43:13;;;;;;;16.85;12.63;;;;;;;32.05;66.39;101279.56;5059130;28;70132;-31
2024/03/12 02:45:45;;;;;;;26.05;13.25;;;;;;;32.05;66.34;101268.72;5049057;28;65855;-29
2024/03/12 02:48:18;;;;;;;30.63;12.68;;;;;;;32.13;66.26;101272.25;5060155;28;70670;-31
2024/03/12 02:50:49;;;;;;;21.60;13.15;;;;;;;32.15;65.90;101268.25;5051444;28;65791;-33
2024/03/12 02:53:26;;;;;;;21.30;12.80;;;;;;;32.21;65.92;101263.81;5055253;28;70073;-32
2024/03/12 02:55:56;;;;;;;21.58;12.48;;;;;;;32.22;65.86;101262.78;5058647;28;64890;-32
2024/03/12 02:58:27;;;;;;;27.90;12.90;;;;;;;32.28;65.57;101257.28;5060481;28;70046;-35
2024/03/12 03:00:58;;;;;;;27.80;13.32;;;;;;;32.30;65.47;101265.22;5061957;28;67408;-31
2024/03/12 03:03:29;;;;;;;24.38;12.85;;;;;;;32.35;65.56;101259.13;5057870;28;70521;-30
2024/03/12 03:05:59;;;;;;;20.60;12.40;;;;;;;32.38;65.63;101261.41;5061846;28;66857;-31
2024/03/12 03:08:31;;;;;;;24.20;12.35;;;;;;;32.41;65.23;101261.78;5061989;28;70873;-31
2024/03/12 03:11:01;;;;;;;16.58;12.13;;;;;;;32.43;65.52;101262.41;5057959;28;66102;-31
2024/03/12 03:13:35;;;;;;;20.77;12.23;;;;;;;32.48;65.26;101267.16;5061937;28;71714;-33
2024/03/12 03:16:06;;;;;;;21.25;12.13;;;;;;;32.50;65.32;101251.50;5059287;28;66170;-31
2024/03/12 03:18:37;;;;;;;19.77;11.38;;;;;;;32.54;65.09;101254.59;5059632;28;71442;-31
2024/03/12 03:21:08;;;;;;;22.50;11.60;;;;;;;32.56;65.22;101241.63;5061228;28;66443;-35
2024/03/12 03:23:42;;;;;;;21.42;11.52;;;;;;;32.58;65.21;101234.91;5060224;28;69581;-32
2024/03/12 03:26:13;;;;;;;16.08;11.18;;;;;;;32.62;65.12;101235.28;5059460;28;66254;-33
2024/03/12 03:28:43;;;;;;;20.45;11.23;;;;;;;32.64;65.25;101238.63;5059043;28;69319;-30
2024/03/12 03:31:14;;;;;;;18.52;11.35;;;;;;;32.64;65.14;101233.19;5058904;28;66146;-33
2024/03/12 03:33:47;;;;;;;20.02;11.77;;;;;;;32.69;65.08;101225.22;5060202;28;70005;-33
2024/03/12 03:36:17;;;;;;;15.50;10.93;;;;;;;32.73;64.80;101231.84;5059689;28;65834;-35
2024/03/12 03:38:48;;;;;;;13.63;11.27;;;;;;;32.75;65.12;101235.16;5048108;28;70676;-32
2024/03/12 03:41:19;;;;;;;22.55;11.77;;;;;;;32.77;64.93;101227.63;5061100;28;66552;-33
2024/03/12 03:43:51;;;;;;;11.48;9.98;;;;;;;32.82;64.63;101224.22;5059606;28;70179;-31
2024/03/12 03:46:23;;;;;;;14.10;10.65;;;;;;;32.79;65.08;101214.66;5058290;28;65906;-32
2024/03/12 03:48:55;;;;;;;15.73;10.30;;;;;;;32.85;64.77;101224.63;5058777;28;69069;-31
2024/03/12 03:51:26;;;;;;;13.75;10.05;;;;;;;32.87;65.06;101208.06;5042849;28;64204;-31
2024/03/12 03:54:00;;;;;;;13.98;10.63;;;;;;;32.89;65.02;101214.94;5057335;28;69187;-32
2024/03/12 03:56:31;;;;;;;14.73;10.38;;;;;;;32.91;64.89;101207.41;5058916;28;66143;-31
2024/03/12 03:59:03;;;;;;;11.13;9.97;;;;;;;32.89;64.77;101204.06;5058132;28;68615;-32
2024/03/12 04:01:34;;;;;;;14.82;10.70;;;;;;;32.93;65.04;101201.72;5059339;28;66185;-31
2024/03/12 04:04:12;;;;;;;11.70;10.43;;;;;;;32.99;64.92;101194.56;5060438;28;70749;-31
2024/03/12 04:06:43;;;;;;;12.20;10.45;;;;;;;33.03;64.90;101198.53;5057164;28;66537;-32
2024/03/12 04:09:15;;;;;;;17.63;10.27;;;;;;;33.04;64.78;101189.31;5060026;28;69880;-33
2024/03/12 04:11:48;;;;;;;10.83;9.87;;;;;;;33.08;64.95;101183.19;5060009;28;65633;-31
2024/03/12 04:14:19;;;;;;;10.82;9.82;;;;;;;33.11;64.90;101179.19;5053420;28;70883;-31
2024/03/12 04:16:50;;;;;;;13.55;9.27;;;;;;;33.15;64.70;101177.66;5051258;28;65819;-32
2024/03/12 04:19:20;;;;;;;11.63;9.57;;;;;;;33.18;64.90;101179.91;5058235;28;70282;-32
2024/03/12 04:21:51;;;;;;;11.73;10.25;;;;;;;33.19;64.57;101176.16;5058601;28;66537;-32
2024/03/12 04:24:22;;;;;;;10.90;9.00;;;;;;;33.20;64.65;101156.06;5027541;28;893181;-32
2024/03/12 04:26:53;;;;;;;13.27;9.77;;;;;;;33.21;64.52;101149.59;5059446;28;66614;-31
2024/03/12 04:29:24;;;;;;;11.77;9.97;;;;;;;33.27;64.38;101154.09;5060286;28;70036;-31
2024/03/12 04:31:55;;;;;;;10.85;9.75;;;;;;;33.30;64.46;101150.09;5060021;28;66270;-32
2024/03/12 04:34:25;;;;;;;11.53;9.77;;;;;;;33.32;64.41;101151.53;5047770;28;71149;-31
2024/03/12 04:36:58;;;;;;;10.70;9.60;;;;;;;33.32;63.94;101143.38;5054191;28;66676;-30
2024/03/12 04:39:31;;;;;;;9.60;8.50;;;;;;;33.38;64.47;101137.00;5048983;28;70321;-31
2024/03/12 04:42:06;;;;;;;10.20;9.35;;;;;;;33.41;64.05;101135.69;5073316;28;65700;-31
2024/03/12 04:44:38;;;;;;;12.77;8.85;;;;;;;33.41;64.21;101130.25;5048891;28;70007;-31
2024/03/12 04:47:09;;;;;;;14.98;9.13;;;;;;;33.42;64.21;101114.78;5059060;28;66348;-32
2024/03/12 04:49:40;;;;;;;10.32;9.38;;;;;;;33.45;63.88;101130.63;5058576;28;69962;-31
2024/03/12 04:52:11;;;;;;;9.50;8.30;;;;;;;33.49;64.48;101126.38;5059658;28;65785;-31
2024/03/12 04:54:43;;;;;;;10.15;9.25;;;;;;;33.53;64.14;101116.72;5056769;28;69811;-30
2024/03/12 04:57:13;;;;;;;9.13;8.20;;;;;;;33.53;64.29;101122.16;5054872;28;66572;-32
2024/03/12 04:59:44;;;;;;;10.90;8.80;;;;;;;33.58;64.05;101108.69;5054253;28;70466;-31
2024/03/12 05:02:15;;;;;;;10.63;8.88;;;;;;;33.61;63.98;101102.78;5054115;28;67961;-34
2024/03/12 05:04:46;;;;;;;9.20;8.50;;;;;;;33.63;63.96;101095.22;5054033;28;70414;-35
2024/03/12 05:07:17;;;;;;;9.53;8.67;;;;;;;33.65;63.70;101094.97;5053377;28;67540;-32
2024/03/12 05:09:48;;;;;;;11.43;8.90;;;;;;;33.68;63.76;101102.66;5053176;28;69988;-31
2024/03/12 05:12:19;;;;;;;8.67;7.90;;;;;;;33.72;63.88;101093.00;5055164;28;66872;-36
2024/03/12 05:14:50;;;;;;;9.52;8.60;;;;;;;33.74;63.64;101094.41;5052951;28;70562;-33
2024/03/12 05:17:21;;;;;;;9.37;8.50;;;;;;;33.76;63.75;101075.94;5052972;28;66107;-32
2024/03/12 05:19:53;;;;;;;9.60;8.70;;;;;;;33.81;63.64;101075.25;5053649;28;69093;-33
2024/03/12 05:22:24;;;;;;;8.55;7.85;;;;;;;33.85;63.79;101062.00;5053651;28;65352;-32
2024/03/12 05:24:54;;;;;;;9.00;8.25;;;;;;;33.87;63.45;101057.97;5050903;28;70064;-30
2024/03/12 05:27:33;;;;;;;9.20;8.40;;;;;;;33.83;63.54;101043.19;5053358;28;66309;-34
2024/03/12 05:30:10;;;;;;;8.95;8.25;;;;;;;33.88;63.37;101047.91;5052498;28;70503;-36
2024/03/12 05:32:48;;;;;;;8.68;8.18;;;;;;;33.92;63.16;101040.94;5054722;28;66192;-32
2024/03/12 05:35:22;;;;;;;8.90;8.05;;;;;;;33.97;63.55;101035.63;5052229;28;70102;-33
2024/03/12 05:38:03;;;;;;;9.38;8.50;;;;;;;34.01;63.47;101034.06;5054571;28;67425;-32
2024/03/12 05:40:56;;;;;;;8.52;8.02;;;;;;;34.02;63.38;101012.06;5053979;28;70736;-34
2024/03/12 05:49:19;;;;;;;8.35;7.65;;;;;;;34.14;63.37;100997.63;5053011;28;65793;-34
2024/03/12 05:51:53;;;;;;;7.88;7.18;;;;;;;34.00;63.34;100970.63;5053059;28;70210;-32
2024/03/12 05:54:23;;;;;;;9.70;8.00;;;;;;;34.16;63.24;100990.88;5053624;28;66498;-33
2024/03/12 05:56:54;;;;;;;8.43;7.73;;;;;;;34.06;63.37;100958.00;5051681;28;69977;-33
2024/03/12 05:59:25;;;;;;;9.60;8.70;;;;;;;34.23;63.15;100974.41;5055666;28;65960;-31
2024/03/12 06:01:58;;;;;;;9.05;8.18;;;;;;;34.25;63.19;100962.22;5047619;28;70398;-32
2024/03/12 06:04:32;;;;;;;8.60;8.00;;;;;;;34.26;62.89;100958.41;5057936;28;66514;-32
2024/03/12 06:07:02;;;;;;;8.80;8.18;;;;;;;34.31;62.68;100965.03;5055593;28;71178;-31
2024/03/12 06:09:33;;;;;;;9.43;8.63;;;;;;;34.33;62.75;100947.38;5057545;28;66213;-33
2024/03/12 06:12:04;;;;;;;8.32;7.53;;;;;;;34.36;63.20;100936.00;5056477;28;70689;-33
2024/03/12 06:14:37;;;;;;;7.85;7.25;;;;;;;34.40;62.73;100920.00;5055667;28;66312;-32
2024/03/12 06:17:08;;;;;;;8.00;7.40;;;;;;;34.44;62.56;100932.06;5058083;28;69886;-32
2024/03/12 06:19:39;;;;;;;8.00;7.33;;;;;;;34.46;62.80;100935.34;5053138;28;67182;-32
2024/03/12 06:22:10;;;;;;;9.90;7.03;;;;;;;34.46;62.79;100924.47;5056685;28;69643;-33
2024/03/12 06:24:41;;;;;;;7.85;7.25;;;;;;;34.50;62.93;100927.56;5056066;28;66210;-31
2024/03/12 06:27:13;;;;;;;;;;;;;;;34.43;62.41;100919.50;5057634;28;70835;-31
2024/03/12 06:29:51;;;;;;;7.55;6.85;;;;;;;34.55;62.34;100914.84;5040587;28;66436;-31
2024/03/12 06:32:24;;;;;;;8.20;7.50;;;;;;;34.58;62.44;100906.22;5055858;28;70589;-30
2024/03/12 06:34:56;;;;;;;8.20;7.50;;;;;;;34.62;62.67;100901.91;5055767;28;65938;-31
2024/03/12 06:37:28;;;;;;;9.55;7.70;;;;;;;34.64;62.67;100899.78;5057668;28;69594;-32
2024/03/12 06:39:59;;;;;;;8.93;7.93;;;;;;;34.65;62.73;100890.53;5051982;28;66984;-32
2024/03/12 06:42:31;;;;;;;8.07;7.47;;;;;;;34.67;62.58;100885.66;5053933;28;70146;-31
2024/03/12 06:45:03;;;;;;;9.18;7.78;;;;;;;34.67;62.12;100885.66;5056458;28;66127;-31
2024/03/12 06:47:39;;;;;;;7.63;6.97;;;;;;;34.70;62.54;100882.44;5056762;28;70534;-32
2024/03/12 06:50:12;;;;;;;7.80;7.20;;;;;;;34.75;62.37;100883.63;5056133;28;65976;-31
2024/03/12 06:52:47;;;;;;;7.50;6.77;;;;;;;34.78;62.58;100880.41;5054884;28;70431;-32
2024/03/12 06:55:23;;;;;;;8.52;7.75;;;;;;;34.81;62.37;100877.16;5056451;28;65173;-32
2024/03/12 06:57:59;;;;;;;7.88;7.28;;;;;;;34.85;62.53;100867.41;5055885;28;69758;-32
2024/03/12 07:00:37;;;;;;;7.28;6.68;;;;;;;34.85;62.21;100865.53;5055843;28;65007;-32
2024/03/12 07:03:09;;;;;;;7.97;7.22;;;;;;;34.89;62.11;100858.50;5056862;28;69572;-32
2024/03/12 07:05:45;;;;;;;;;;;;;;;34.80;62.17;100850.97;5056002;28;66723;-33
2024/03/12 07:08:17;;;;;;;7.63;7.05;;;;;;;34.90;62.26;100832.88;5057277;28;70396;-33
2024/03/12 07:10:50;;;;;;;;;;;;;;;34.88;61.80;100847.84;5053180;28;66391;-35
2024/03/12 07:13:23;;;;;;;7.43;6.63;;;;;;;35.03;62.01;100848.09;5057177;28;69488;-34
2024/03/12 07:15:53;;;;;;;8.20;7.45;;;;;;;35.06;61.86;100846.81;5061445;28;66124;-32
2024/03/12 07:18:24;;;;;;;7.50;6.97;;;;;;;35.07;62.44;100838.34;5056749;28;69922;-31
2024/03/12 07:20:56;;;;;;;10.53;7.93;;;;;;;35.09;61.96;100844.38;5060293;28;65752;-31
2024/03/12 07:23:26;;;;;;;;;;;;;;;35.02;62.31;100835.53;5060354;28;68958;-31
2024/03/12 07:25:58;;;;;;;7.70;6.95;;;;;;;35.14;61.90;100833.56;5058033;28;66586;-34
2024/03/12 07:28:29;;;;;;;9.02;7.63;;;;;;;35.21;62.27;100827.09;5055563;28;70182;-34
2024/03/12 07:30:59;;;;;;;9.27;8.00;;;;;;;35.22;62.34;100829.59;5055733;28;65929;-32
2024/03/12 07:33:30;;;;;;;7.97;7.43;;;;;;;35.26;62.61;100819.00;5058507;28;70960;-32
2024/03/12 07:36:03;;;;;;;8.88;7.85;;;;;;;35.28;62.27;100823.13;5060243;28;65587;-30
2024/03/12 07:38:34;;;;;;;9.82;7.43;;;;;;;35.32;61.87;100818.81;5056184;28;70895;-31
2024/03/12 07:41:08;;;;;;;7.90;7.30;;;;;;;35.35;62.33;100801.09;5059523;28;65874;-32
2024/03/12 07:43:39;;;;;;;8.20;7.50;;;;;;;35.41;62.51;100811.03;5059034;28;69824;-32
2024/03/12 07:46:11;;;;;;;8.43;7.50;;;;;;;35.44;62.04;100802.34;5049844;28;65478;-31
2024/03/12 07:48:43;;;;;;;8.20;7.45;;;;;;;35.49;62.39;100799.66;5058382;28;70260;-32
2024/03/12 07:51:14;;;;;;;8.65;7.90;;;;;;;35.52;61.96;100801.91;5059380;28;66750;-35
2024/03/12 07:53:46;;;;;;;8.27;7.57;;;;;;;35.40;62.40;100768.44;5057159;28;69599;-31
2024/03/12 07:56:18;;;;;;;8.38;7.53;;;;;;;35.54;62.13;100786.06;5055666;28;66701;-31
2024/03/12 07:58:49;;;;;;;7.97;7.28;;;;;;;35.63;62.24;100794.66;5059657;28;70018;-35
2024/03/12 08:01:20;;;;;;;7.97;7.32;;;;;;;35.70;61.77;100803.50;5056599;28;65859;-31
2024/03/12 08:03:51;;;;;;;7.90;7.20;;;;;;;35.75;61.61;100794.53;5059991;28;69520;-32
2024/03/12 08:06:23;;;;;;;11.15;7.68;;;;;;;35.79;62.32;100792.94;5050446;28;66577;-31
2024/03/12 08:08:53;;;;;;;;;;;;;;;35.73;61.50;100791.25;5059797;28;70318;-32
2024/03/12 08:11:24;;;;;;;9.23;7.03;;;;;;;35.86;61.72;100785.38;5059069;28;67034;-31
2024/03/12 08:13:55;;;;;;;8.07;7.28;;;;;;;35.94;62.02;100793.13;5057993;28;70543;-32
2024/03/12 08:16:25;;;;;;;8.25;7.50;;;;;;;35.96;61.52;100790.94;5058462;28;67002;-32
2024/03/12 08:18:58;;;;;;;7.90;7.15;;;;;;;36.04;62.05;100797.84;5059594;28;69049;-31
2024/03/12 08:21:29;;;;;;;7.82;7.25;;;;;;;36.08;61.79;100795.44;5058745;28;67014;-32
2024/03/12 08:23:59;;;;;;;7.90;7.20;;;;;;;36.11;61.44;100792.19;5059112;28;69974;-32
2024/03/12 08:26:33;;;;;;;8.40;6.57;;;;;;;36.17;61.99;100802.09;5057540;28;66191;-32
2024/03/12 08:29:04;;;;;;;11.20;7.20;;;;;;;36.19;61.89;100794.47;5057916;28;70610;-33
2024/03/12 08:31:38;;;;;;;7.40;6.70;;;;;;;36.23;61.49;100795.59;5057597;28;66109;-32
2024/03/12 08:34:20;;;;;;;11.45;7.32;;;;;;;36.33;61.67;100801.16;5054465;28;69308;-32
2024/03/12 08:36:51;;;;;;;7.53;6.93;;;;;;;36.36;61.51;100799.78;5059995;28;66147;-31
2024/03/12 08:39:22;;;;;;;8.13;7.43;;;;;;;36.43;61.48;100801.22;5054505;28;71698;-32
2024/03/12 08:41:54;;;;;;;7.90;6.67;;;;;;;36.46;61.28;100797.97;5057721;28;65718;-32
2024/03/12 08:44:26;;;;;;;8.23;6.93;;;;;;;36.51;61.80;100801.84;5057242;28;69749;-31
2024/03/12 08:46:58;;;;;;;7.18;6.57;;;;;;;36.58;61.42;100797.00;5055868;28;65987;-32
2024/03/12 08:49:29;;;;;;;7.65;6.85;;;;;;;36.63;61.34;100800.59;5055209;28;70384;-31
2024/03/12 08:51:59;;;;;;;7.32;6.80;;;;;;;36.68;61.58;100799.81;5053225;28;65291;-32
2024/03/12 08:54:33;;;;;;;7.07;6.47;;;;;;;36.73;61.32;100808.06;5056538;28;70456;-32
2024/03/12 08:57:04;;;;;;;6.75;6.15;;;;;;;36.73;61.47;100794.41;5054963;28;66684;-34
2024/03/12 08:59:35;;;;;;;6.82;6.28;;;;;;;36.82;61.14;100814.69;5056123;28;71213;-34
2024/03/12 09:02:06;;;;;;;7.20;6.43;;;;;;;36.81;61.36;100802.09;5056546;28;66672;-32
2024/03/12 09:04:38;;;;;;;9.32;6.75;;;;;;;36.92;60.95;100808.47;5057077;28;70498;-33
2024/03/12 09:07:09;;;;;;;9.35;6.40;;;;;;;36.94;61.50;100821.88;5056970;28;65141;-32
2024/03/12 09:09:39;;;;;;;6.97;6.40;;;;;;;36.95;61.56;100823.53;5045582;28;69696;-33
2024/03/12 09:12:10;;;;;;;6.18;5.78;;;;;;;37.04;61.55;100830.19;5057955;28;65828;-32
2024/03/12 09:14:41;;;;;;;6.60;6.10;;;;;;;37.02;60.70;100815.94;5057643;28;70193;-33
2024/03/12 09:17:12;;;;;;;7.97;6.60;;;;;;;37.10;61.11;100832.66;5055803;28;66728;-32
2024/03/12 09:19:43;;;;;;;10.02;6.70;;;;;;;37.07;61.95;100825.00;5055459;28;70112;-32
2024/03/12 09:22:14;;;;;;;14.20;6.78;;;;;;;37.09;61.57;100831.03;5055021;28;65964;-33
2024/03/12 09:24:44;;;;;;;12.35;7.15;;;;;;;37.01;61.52;100831.53;5054019;28;70787;-31
2024/03/12 09:27:15;;;;;;;9.30;6.93;;;;;;;37.13;61.29;100836.78;5053936;28;66634;-32
2024/03/12 09:29:46;;;;;;;15.47;6.70;;;;;;;37.03;61.85;100832.09;5057217;28;70297;-32
2024/03/12 09:32:17;;;;;;;10.63;6.63;;;;;;;37.06;61.46;100833.47;5054084;28;65728;-33
2024/03/12 09:34:47;;;;;;;13.23;6.68;;;;;;;37.06;61.99;100837.03;5053269;28;68995;-32
2024/03/12 09:37:19;;;;;;;9.47;6.43;;;;;;;37.12;61.91;100846.09;5046959;28;66841;-33
2024/03/12 09:39:52;;;;;;;;;;;;;;;37.09;62.08;100846.63;5057864;28;70219;-33
2024/03/12 09:42:26;;;;;;;6.30;5.70;;;;;;;36.81;61.41;100795.81;5047719;28;66581;-32
2024/03/12 09:44:58;;;;;;;9.43;6.22;;;;;;;37.14;61.75;100849.38;5058011;28;70131;-32
2024/03/12 09:47:28;;;;;;;;;;;;;;;37.03;61.55;100855.88;5058938;28;66427;-33
2024/03/12 09:50:01;;;;;;;6.22;5.72;;;;;;;37.18;61.83;100860.63;5055442;28;70403;-35
2024/03/12 09:52:35;;;;;;;19.95;6.65;;;;;;;37.21;61.43;100863.63;5056737;28;66963;-31
2024/03/12 09:55:13;;;;;;;6.90;6.30;;;;;;;37.15;61.75;100867.44;5057659;28;70146;-34
2024/03/12 09:57:46;;;;;;;8.40;6.22;;;;;;;37.13;61.38;100872.34;5057750;28;65641;-31
2024/03/12 10:00:24;;;;;;;9.70;6.60;;;;;;;37.15;61.86;100872.91;5055999;28;70282;-32
2024/03/12 10:02:55;;;;;;;9.68;6.72;;;;;;;37.19;61.50;100884.94;5058551;28;65512;-33
2024/03/12 10:05:27;;;;;;;7.68;6.90;;;;;;;37.20;61.43;100891.28;5067775;28;70019;-32
2024/03/12 10:08:14;;;;;;;12.10;6.30;;;;;;;37.17;61.04;100889.88;5057298;28;65901;-32
2024/03/12 10:10:52;;;;;;;8.02;6.18;;;;;;;37.07;61.39;100876.94;5056149;28;70103;-33
2024/03/12 10:13:23;;;;;;;10.65;6.70;;;;;;;37.18;61.89;100887.97;5057262;28;66471;-32
2024/03/12 10:16:03;;;;;;;7.15;6.40;;;;;;;37.07;61.54;100887.06;5058931;28;70418;-39
2024/03/12 10:18:34;;;;;;;9.73;6.10;;;;;;;37.11;61.58;100896.38;5057914;28;65458;-33
2024/03/12 10:21:06;;;;;;;14.25;6.57;;;;;;;37.11;61.97;100893.63;5058578;28;69687;-36
2024/03/12 10:23:37;;;;;;;13.93;6.05;;;;;;;37.13;62.21;100897.75;5055882;28;65965;-32
2024/03/12 10:26:11;;;;;;;;;;;;;;;37.02;61.66;100901.50;5059521;28;70913;-32
2024/03/12 10:28:46;;;;;;;9.85;5.68;;;;;;;37.10;61.27;100911.97;5058042;28;66640;-34
2024/03/12 10:31:19;;;;;;;14.48;6.40;;;;;;;37.07;61.88;100906.22;5056993;28;70544;-32
2024/03/12 10:33:50;;;;;;;8.27;6.32;;;;;;;37.06;62.37;100918.25;5056416;28;65560;-33
2024/03/12 10:36:32;;;;;;;18.65;6.57;;;;;;;37.00;61.63;100917.34;5057409;28;70072;-35
2024/03/12 10:39:12;;;;;;;7.55;5.97;;;;;;;36.98;62.34;100919.50;5047342;28;66128;-32
2024/03/12 10:41:45;;;;;;;9.13;6.95;;;;;;;36.86;62.39;100914.22;5054527;28;70083;-37
2024/03/12 10:44:19;;;;;;;9.70;6.47;;;;;;;36.85;62.35;100923.50;5056138;28;66348;-33
2024/03/12 10:46:50;;;;;;;15.23;6.28;;;;;;;36.85;61.95;100922.69;5058036;28;69417;-33
2024/03/12 10:49:22;;;;;;;9.32;6.57;;;;;;;36.80;61.99;100923.44;5055707;28;67033;-33
2024/03/12 10:51:57;;;;;;;15.48;6.07;;;;;;;36.82;62.37;100925.94;5061943;28;70441;-34
2024/03/12 10:54:32;;;;;;;7.05;6.20;;;;;;;36.73;62.81;100931.06;5060483;28;66254;-33
2024/03/12 10:57:08;;;;;;;12.95;6.03;;;;;;;36.57;63.23;100901.94;5048653;28;70457;-34
2024/03/12 10:59:40;;;;;;;7.55;6.45;;;;;;;36.71;62.59;100930.47;5056230;28;65217;-33
2024/03/12 11:02:12;;;;;;;10.68;6.28;;;;;;;36.67;63.04;100937.56;5060215;28;70546;-33
2024/03/12 11:04:48;;;;;;;14.45;7.20;;;;;;;36.33;62.87;100888.56;5060426;28;66224;-34
2024/03/12 11:07:19;;;;;;;13.50;6.13;;;;;;;36.61;62.90;100938.56;5062145;28;69970;-35
2024/03/12 11:09:51;;;;;;;8.02;5.43;;;;;;;36.55;63.21;100934.16;5060798;28;66569;-31
2024/03/12 11:12:24;;;;;;;8.95;5.53;;;;;;;36.33;63.39;100907.69;5059501;28;68952;-32
2024/03/12 11:14:55;;;;;;;10.57;6.35;;;;;;;36.51;63.73;100943.94;5061082;28;65247;-34
2024/03/12 11:17:28;;;;;;;14.75;6.30;;;;;;;36.50;63.41;100945.84;5056697;28;69494;-34
2024/03/12 11:20:00;;;;;;;30.77;6.20;;;;;;;36.46;63.25;100944.69;5061917;28;66790;-34
2024/03/12 11:22:35;;;;;;;25.50;9.52;;;;;;;36.40;63.96;100943.81;5059283;28;69945;-33
2024/03/12 11:25:08;;;;;;;26.63;10.50;;;;;;;36.39;64.03;100946.81;5061885;28;66574;-33
2024/03/12 11:27:41;;;;;;;29.73;11.45;;;;;;;36.39;63.69;100950.38;5061436;28;69896;-32
2024/03/12 11:30:14;;;;;;;30.45;11.70;;;;;;;36.39;64.51;100950.38;5059873;28;66290;-35
2024/03/12 11:32:50;;;;;;;27.92;9.80;;;;;;;36.34;63.92;100960.41;5060158;28;69693;-33
2024/03/12 11:35:21;;;;;;;21.35;9.43;;;;;;;36.32;63.29;100959.84;5057729;28;66239;-31
2024/03/12 11:38:00;;;;;;;19.92;8.70;;;;;;;36.26;63.88;100958.13;5061628;28;71064;-33
2024/03/12 11:40:32;;;;;;;18.27;8.23;;;;;;;36.24;63.79;100967.38;5060122;28;65408;-32
2024/03/12 11:43:03;;;;;;;18.65;8.20;;;;;;;36.22;63.80;100968.75;5059945;28;69750;-33
2024/03/12 11:45:48;;;;;;;15.75;8.30;;;;;;;36.17;63.35;100977.69;5060803;28;66447;-36
2024/03/12 11:48:32;;;;;;;14.13;8.20;;;;;;;36.15;63.53;100979.84;5059182;28;70495;-32